sensor_id;sensor_type;location;lat;lon;timestamp;temperature;humidity
4207;DHT22;2117;47.972;7.830;2023-02-03T02:30:31;5.90;99.90
4207;DHT22;2117;47.972;7.830;2023-02-03T02:35:57;6.00;99.90
4207;DHT22;2117;47.972;7.830;2023-02-03T02:39:11;5.90;99.90
4207;DHT22;2117;47.972;7.830;2023-02-03T02:41:38;5.90;99.90
4207;DHT22;2117;47.972;7.830;2023-02-03T02:44:13;5.90;99.90
4207;DHT22;2117;47.972;7.830;2023-02-03T02:46:43;5.90;99.90
4207;DHT22;2117;47.972;7.830;2023-02-03T02:52:03;5.90;99.90
4207;DHT22;2117;47.972;7.830;2023-02-03T02:54:31;5.90;99.90
4207;DHT22;2117;47.972;7.830;2023-02-03T02:57:00;5.90;99.90
4207;DHT22;2117;47.972;7.830;2023-02-03T02:59:27;5.90;99.90
4207;DHT22;2117;47.972;7.830;2023-02-03T03:01:52;5.90;99.90
4207;DHT22;2117;47.972;7.830;2023-02-03T03:04:24;5.90;99.90
4207;DHT22;2117;47.972;7.830;2023-02-03T03:06:56;5.90;99.90
4207;DHT22;2117;47.972;7.830;2023-02-03T03:12:23;5.80;99.90
4207;DHT22;2117;47.972;7.830;2023-02-03T03:14:56;5.70;99.90
4207;DHT22;2117;47.972;7.830;2023-02-03T03:17:30;5.70;99.90
4207;DHT22;2117;47.972;7.830;2023-02-03T03:20:01;5.70;99.90
4207;DHT22;2117;47.972;7.830;2023-02-03T03:22:34;5.70;99.90
4207;DHT22;2117;47.972;7.830;2023-02-03T03:25:23;5.70;99.90
4207;DHT22;2117;47.972;7.830;2023-02-03T03:27:55;5.70;99.90
4207;DHT22;2117;47.972;7.830;2023-02-03T03:30:41;5.70;99.90
4207;DHT22;2117;47.972;7.830;2023-02-03T03:33:07;5.60;99.90
4207;DHT22;2117;47.972;7.830;2023-02-03T03:36:00;5.60;99.90
4207;DHT22;2117;47.972;7.830;2023-02-03T03:38:42;5.60;99.90
4207;DHT22;2117;47.972;7.830;2023-02-03T03:41:59;5.60;99.90
4207;DHT22;2117;47.972;7.830;2023-02-03T03:44:05;5.60;99.90
4207;DHT22;2117;47.972;7.830;2023-02-03T03:46:54;5.60;99.90
4207;DHT22;2117;47.972;7.830;2023-02-03T03:49:24;5.60;99.90
4207;DHT22;2117;47.972;7.830;2023-02-03T03:51:56;5.60;99.90
4207;DHT22;2117;47.972;7.830;2023-02-03T03:54:23;5.50;99.90
4207;DHT22;2117;47.972;7.830;2023-02-03T03:56:57;5.50;99.90
4207;DHT22;2117;47.972;7.830;2023-02-03T03:59:26;5.50;99.90
4207;DHT22;2117;47.972;7.830;2023-02-03T04:01:54;5.60;99.90
4207;DHT22;2117;47.972;7.830;2023-02-03T04:04:21;5.50;99.90
4207;DHT22;2117;47.972;7.830;2023-02-03T04:06:48;5.60;99.90
4207;DHT22;2117;47.972;7.830;2023-02-03T04:09:14;5.60;99.90
4207;DHT22;2117;47.972;7.830;2023-02-03T04:11:39;5.60;99.90
4207;DHT22;2117;47.972;7.830;2023-02-03T04:14:23;5.60;99.90
4207;DHT22;2117;47.972;7.830;2023-02-03T04:16:49;5.60;99.90
4207;DHT22;2117;47.972;7.830;2023-02-03T04:19:14;5.60;99.90
4207;DHT22;2117;47.972;7.830;2023-02-03T04:21:40;5.60;99.90
4207;DHT22;2117;47.972;7.830;2023-02-03T04:24:06;5.60;99.90
4207;DHT22;2117;47.972;7.830;2023-02-03T04:26:31;5.60;99.90
4207;DHT22;2117;47.972;7.830;2023-02-03T04:28:57;5.60;99.90
4207;DHT22;2117;47.972;7.830;2023-02-03T04:31:22;5.60;99.90
4207;DHT22;2117;47.972;7.830;2023-02-03T04:33:48;5.60;99.90
4207;DHT22;2117;47.972;7.830;2023-02-03T04:36:13;5.60;99.90
4207;DHT22;2117;47.972;7.830;2023-02-03T04:38:39;5.60;99.90
4207;DHT22;2117;47.972;7.830;2023-02-03T04:41:05;5.60;99.90
4207;DHT22;2117;47.972;7.830;2023-02-03T04:43:30;5.60;99.90
4207;DHT22;2117;47.972;7.830;2023-02-03T04:45:58;5.70;99.90
4207;DHT22;2117;47.972;7.830;2023-02-03T04:48:24;5.70;99.90
4207;DHT22;2117;47.972;7.830;2023-02-03T04:50:49;5.70;99.90
4207;DHT22;2117;47.972;7.830;2023-02-03T04:53:15;5.70;99.90
4207;DHT22;2117;47.972;7.830;2023-02-03T04:55:40;5.70;99.90
4207;DHT22;2117;47.972;7.830;2023-02-03T04:58:07;5.80;99.90
4207;DHT22;2117;47.972;7.830;2023-02-03T05:00:32;5.80;99.90
4207;DHT22;2117;47.972;7.830;2023-02-03T05:02:58;5.80;99.90
4207;DHT22;2117;47.972;7.830;2023-02-03T05:05:23;5.80;99.90
4207;DHT22;2117;47.972;7.830;2023-02-03T05:07:49;5.80;99.90
4207;DHT22;2117;47.972;7.830;2023-02-03T05:10:15;5.80;99.90
4207;DHT22;2117;47.972;7.830;2023-02-03T05:12:40;5.80;99.90
4207;DHT22;2117;47.972;7.830;2023-02-03T05:15:06;5.80;99.90
4207;DHT22;2117;47.972;7.830;2023-02-03T05:17:32;5.90;99.90
4207;DHT22;2117;47.972;7.830;2023-02-03T05:20:03;5.90;99.90
4207;DHT22;2117;47.972;7.830;2023-02-03T05:22:29;5.90;99.90
4207;DHT22;2117;47.972;7.830;2023-02-03T05:24:54;5.80;99.90
4207;DHT22;2117;47.972;7.830;2023-02-03T05:27:20;5.90;99.90
4207;DHT22;2117;47.972;7.830;2023-02-03T05:29:45;5.80;99.90
4207;DHT22;2117;47.972;7.830;2023-02-03T05:32:11;5.80;99.90
4207;DHT22;2117;47.972;7.830;2023-02-03T05:34:36;5.80;99.90
4207;DHT22;2117;47.972;7.830;2023-02-03T05:37:02;5.90;99.90
4207;DHT22;2117;47.972;7.830;2023-02-03T05:39:28;5.90;99.90
4207;DHT22;2117;47.972;7.830;2023-02-03T05:41:53;5.90;99.90
4207;DHT22;2117;47.972;7.830;2023-02-03T05:44:21;5.90;99.90
4207;DHT22;2117;47.972;7.830;2023-02-03T05:46:48;5.90;99.90
4207;DHT22;2117;47.972;7.830;2023-02-03T05:49:14;6.00;99.90
4207;DHT22;2117;47.972;7.830;2023-02-03T05:51:40;5.90;99.90
4207;DHT22;2117;47.972;7.830;2023-02-03T05:54:06;5.90;99.90
4207;DHT22;2117;47.972;7.830;2023-02-03T05:56:31;5.90;99.90
4207;DHT22;2117;47.972;7.830;2023-02-03T05:58:57;6.00;99.90
4207;DHT22;2117;47.972;7.830;2023-02-03T06:01:24;6.00;99.90
4207;DHT22;2117;47.972;7.830;2023-02-03T06:03:50;5.90;99.90
4207;DHT22;2117;47.972;7.830;2023-02-03T06:06:15;5.90;99.90
4207;DHT22;2117;47.972;7.830;2023-02-03T06:08:41;5.90;99.90
4207;DHT22;2117;47.972;7.830;2023-02-03T06:11:07;5.90;99.90
4207;DHT22;2117;47.972;7.830;2023-02-03T06:13:33;5.90;99.90
4207;DHT22;2117;47.972;7.830;2023-02-03T06:15:58;6.00;99.90
4207;DHT22;2117;47.972;7.830;2023-02-03T06:18:24;6.00;99.90
4207;DHT22;2117;47.972;7.830;2023-02-03T06:20:50;6.00;99.90
4207;DHT22;2117;47.972;7.830;2023-02-03T06:23:16;6.10;99.90
4207;DHT22;2117;47.972;7.830;2023-02-03T06:25:43;6.10;99.90
4207;DHT22;2117;47.972;7.830;2023-02-03T06:28:09;6.10;99.90
4207;DHT22;2117;47.972;7.830;2023-02-03T06:30:34;6.10;99.90
4207;DHT22;2117;47.972;7.830;2023-02-03T06:33:00;6.10;99.90
4207;DHT22;2117;47.972;7.830;2023-02-03T06:35:25;6.10;99.90
4207;DHT22;2117;47.972;7.830;2023-02-03T06:37:51;6.10;99.90
4207;DHT22;2117;47.972;7.830;2023-02-03T06:40:17;6.10;99.90
4207;DHT22;2117;47.972;7.830;2023-02-03T06:42:47;6.10;99.90
4207;DHT22;2117;47.972;7.830;2023-02-03T06:45:13;6.10;99.90
4207;DHT22;2117;47.972;7.830;2023-02-03T06:47:43;6.10;99.90
4207;DHT22;2117;47.972;7.830;2023-02-03T06:50:11;6.10;99.90
4207;DHT22;2117;47.972;7.830;2023-02-03T06:52:37;6.10;99.90
4207;DHT22;2117;47.972;7.830;2023-02-03T06:55:04;6.10;99.90
4207;DHT22;2117;47.972;7.830;2023-02-03T06:57:30;6.10;99.90
4207;DHT22;2117;47.972;7.830;2023-02-03T06:59:55;6.10;99.90
4207;DHT22;2117;47.972;7.830;2023-02-03T07:02:21;6.10;99.90
4207;DHT22;2117;47.972;7.830;2023-02-03T07:04:46;6.10;99.90
4207;DHT22;2117;47.972;7.830;2023-02-03T07:07:12;6.10;99.90
4207;DHT22;2117;47.972;7.830;2023-02-03T07:09:39;6.00;99.90
4207;DHT22;2117;47.972;7.830;2023-02-03T07:12:06;6.00;99.90
4207;DHT22;2117;47.972;7.830;2023-02-03T07:14:32;6.00;99.90
4207;DHT22;2117;47.972;7.830;2023-02-03T07:17:00;6.00;99.90
4207;DHT22;2117;47.972;7.830;2023-02-03T07:19:26;5.90;99.90
4207;DHT22;2117;47.972;7.830;2023-02-03T07:21:52;5.90;99.90
4207;DHT22;2117;47.972;7.830;2023-02-03T07:24:17;5.90;99.90
4207;DHT22;2117;47.972;7.830;2023-02-03T07:26:43;6.00;99.90
4207;DHT22;2117;47.972;7.830;2023-02-03T07:29:08;6.00;99.90
4207;DHT22;2117;47.972;7.830;2023-02-03T07:31:34;6.00;99.90
4207;DHT22;2117;47.972;7.830;2023-02-03T07:34:00;5.90;99.90
4207;DHT22;2117;47.972;7.830;2023-02-03T07:36:27;5.90;99.90
4207;DHT22;2117;47.972;7.830;2023-02-03T07:38:53;5.90;99.90
4207;DHT22;2117;47.972;7.830;2023-02-03T07:41:18;5.90;99.90
4207;DHT22;2117;47.972;7.830;2023-02-03T07:43:44;5.80;99.90
4207;DHT22;2117;47.972;7.830;2023-02-03T07:46:10;6.00;99.90
4207;DHT22;2117;47.972;7.830;2023-02-03T07:48:35;6.00;99.90
4207;DHT22;2117;47.972;7.830;2023-02-03T07:51:01;6.00;99.90
4207;DHT22;2117;47.972;7.830;2023-02-03T07:53:26;6.10;99.90
4207;DHT22;2117;47.972;7.830;2023-02-03T07:55:52;6.10;99.90
4207;DHT22;2117;47.972;7.830;2023-02-03T07:58:17;6.10;99.90
4207;DHT22;2117;47.972;7.830;2023-02-03T08:00:43;6.10;99.90
4207;DHT22;2117;47.972;7.830;2023-02-03T08:03:09;6.10;99.90
4207;DHT22;2117;47.972;7.830;2023-02-03T08:05:34;6.20;99.90
4207;DHT22;2117;47.972;7.830;2023-02-03T08:08:00;6.20;99.90
4207;DHT22;2117;47.972;7.830;2023-02-03T08:10:26;6.20;99.90
4207;DHT22;2117;47.972;7.830;2023-02-03T08:12:52;6.20;99.90
4207;DHT22;2117;47.972;7.830;2023-02-03T08:15:18;6.30;99.90
4207;DHT22;2117;47.972;7.830;2023-02-03T08:17:44;6.30;99.90
4207;DHT22;2117;47.972;7.830;2023-02-03T08:20:10;6.30;99.90
4207;DHT22;2117;47.972;7.830;2023-02-03T08:22:36;6.30;99.90
4207;DHT22;2117;47.972;7.830;2023-02-03T08:25:02;6.40;99.90
4207;DHT22;2117;47.972;7.830;2023-02-03T08:27:29;6.40;99.90
4207;DHT22;2117;47.972;7.830;2023-02-03T08:29:55;6.40;99.90
4207;DHT22;2117;47.972;7.830;2023-02-03T08:32:21;6.50;99.90
4207;DHT22;2117;47.972;7.830;2023-02-03T08:34:49;6.50;99.90
4207;DHT22;2117;47.972;7.830;2023-02-03T08:37:17;6.50;99.90
4207;DHT22;2117;47.972;7.830;2023-02-03T08:39:43;6.50;99.90
4207;DHT22;2117;47.972;7.830;2023-02-03T08:42:08;6.50;99.90
4207;DHT22;2117;47.972;7.830;2023-02-03T08:44:34;6.50;99.90
4207;DHT22;2117;47.972;7.830;2023-02-03T08:47:00;6.50;99.90
4207;DHT22;2117;47.972;7.830;2023-02-03T08:49:28;6.50;99.90
4207;DHT22;2117;47.972;7.830;2023-02-03T08:51:54;6.60;99.90
4207;DHT22;2117;47.972;7.830;2023-02-03T08:54:20;6.70;99.90
4207;DHT22;2117;47.972;7.830;2023-02-03T08:56:46;6.70;99.90
4207;DHT22;2117;47.972;7.830;2023-02-03T08:59:12;6.70;99.90
4207;DHT22;2117;47.972;7.830;2023-02-03T09:01:38;6.70;99.90
4207;DHT22;2117;47.972;7.830;2023-02-03T09:04:13;6.80;99.90
4207;DHT22;2117;47.972;7.830;2023-02-03T09:06:39;6.80;99.90
4207;DHT22;2117;47.972;7.830;2023-02-03T09:09:05;6.90;99.90
4207;DHT22;2117;47.972;7.830;2023-02-03T09:11:30;6.90;99.90
4207;DHT22;2117;47.972;7.830;2023-02-03T09:13:56;7.00;99.90
4207;DHT22;2117;47.972;7.830;2023-02-03T09:16:23;7.00;99.90
4207;DHT22;2117;47.972;7.830;2023-02-03T09:18:49;7.10;99.90
4207;DHT22;2117;47.972;7.830;2023-02-03T09:21:15;7.20;99.90
4207;DHT22;2117;47.972;7.830;2023-02-03T09:23:42;7.20;99.90
4207;DHT22;2117;47.972;7.830;2023-02-03T09:26:11;7.10;99.90
4207;DHT22;2117;47.972;7.830;2023-02-03T09:28:36;7.20;99.90
4207;DHT22;2117;47.972;7.830;2023-02-03T09:31:05;7.20;99.90
4207;DHT22;2117;47.972;7.830;2023-02-03T09:33:31;7.20;99.90
4207;DHT22;2117;47.972;7.830;2023-02-03T09:35:57;7.20;99.90
4207;DHT22;2117;47.972;7.830;2023-02-03T09:38:24;7.20;99.90
4207;DHT22;2117;47.972;7.830;2023-02-03T09:40:59;7.20;99.90
4207;DHT22;2117;47.972;7.830;2023-02-03T09:43:42;7.20;99.90
4207;DHT22;2117;47.972;7.830;2023-02-03T09:48:48;7.30;99.90
4207;DHT22;2117;47.972;7.830;2023-02-03T09:51:36;7.30;99.90
4207;DHT22;2117;47.972;7.830;2023-02-03T09:54:14;7.20;99.90
4207;DHT22;2117;47.972;7.830;2023-02-03T09:56:42;7.20;99.90
4207;DHT22;2117;47.972;7.830;2023-02-03T09:59:14;7.20;99.90
4207;DHT22;2117;47.972;7.830;2023-02-03T10:01:52;7.30;99.90
4207;DHT22;2117;47.972;7.830;2023-02-03T10:04:33;7.30;99.90
4207;DHT22;2117;47.972;7.830;2023-02-03T10:07:19;7.30;99.90
4207;DHT22;2117;47.972;7.830;2023-02-03T10:18:11;7.20;99.90
4207;DHT22;2117;47.972;7.830;2023-02-03T10:20:46;7.20;99.90
4207;DHT22;2117;47.972;7.830;2023-02-03T10:23:16;7.30;99.90
4207;DHT22;2117;47.972;7.830;2023-02-03T10:25:53;7.30;99.90
4207;DHT22;2117;47.972;7.830;2023-02-03T10:28:26;7.30;99.90
4207;DHT22;2117;47.972;7.830;2023-02-03T10:30:56;7.30;99.90
4207;DHT22;2117;47.972;7.830;2023-02-03T10:33:25;7.40;99.90
4207;DHT22;2117;47.972;7.830;2023-02-03T10:36:17;7.40;99.90
4207;DHT22;2117;47.972;7.830;2023-02-03T10:41:34;8.00;99.90
4207;DHT22;2117;47.972;7.830;2023-02-03T10:44:02;7.90;99.90
4207;DHT22;2117;47.972;7.830;2023-02-03T10:46:34;7.80;99.90
4207;DHT22;2117;47.972;7.830;2023-02-03T10:49:00;7.90;99.90
4207;DHT22;2117;47.972;7.830;2023-02-03T10:51:28;7.80;99.90
4207;DHT22;2117;47.972;7.830;2023-02-03T10:53:56;7.80;99.90
4207;DHT22;2117;47.972;7.830;2023-02-03T10:58:58;7.70;99.90
4207;DHT22;2117;47.972;7.830;2023-02-03T11:01:46;7.80;99.90
4207;DHT22;2117;47.972;7.830;2023-02-03T11:04:30;7.80;99.90
4207;DHT22;2117;47.972;7.830;2023-02-03T11:07:05;7.80;99.90
4207;DHT22;2117;47.972;7.830;2023-02-03T11:09:37;7.90;99.90
4207;DHT22;2117;47.972;7.830;2023-02-03T11:12:15;7.80;99.90
4207;DHT22;2117;47.972;7.830;2023-02-03T11:14:49;7.90;99.90
4207;DHT22;2117;47.972;7.830;2023-02-03T11:19:45;8.00;99.90
4207;DHT22;2117;47.972;7.830;2023-02-03T11:22:13;8.10;99.90
4207;DHT22;2117;47.972;7.830;2023-02-03T11:24:50;8.10;99.90
4207;DHT22;2117;47.972;7.830;2023-02-03T11:27:17;8.20;99.90
4207;DHT22;2117;47.972;7.830;2023-02-03T11:29:46;8.20;99.90
4207;DHT22;2117;47.972;7.830;2023-02-03T11:32:16;8.20;99.90
4207;DHT22;2117;47.972;7.830;2023-02-03T11:34:59;8.30;99.90
4207;DHT22;2117;47.972;7.830;2023-02-03T11:37:34;8.30;99.90
4207;DHT22;2117;47.972;7.830;2023-02-03T11:42:36;8.30;99.90
4207;DHT22;2117;47.972;7.830;2023-02-03T11:45:22;8.30;99.90
4207;DHT22;2117;47.972;7.830;2023-02-03T11:47:52;8.30;99.90
4207;DHT22;2117;47.972;7.830;2023-02-03T11:50:44;8.30;99.90
4207;DHT22;2117;47.972;7.830;2023-02-03T11:56:08;8.50;99.90
4207;DHT22;2117;47.972;7.830;2023-02-03T12:07:36;8.60;99.90
4207;DHT22;2117;47.972;7.830;2023-02-03T12:16:35;8.80;99.90
4207;DHT22;2117;47.972;7.830;2023-02-03T12:18:51;8.80;99.90
4207;DHT22;2117;47.972;7.830;2023-02-03T12:24:23;9.00;99.90
4207;DHT22;2117;47.972;7.830;2023-02-03T12:27:21;9.10;99.90
4207;DHT22;2117;47.972;7.830;2023-02-03T12:29:57;9.20;99.90
4207;DHT22;2117;47.972;7.830;2023-02-03T12:32:39;9.40;99.90
4207;DHT22;2117;47.972;7.830;2023-02-03T12:35:12;9.40;99.90
4207;DHT22;2117;47.972;7.830;2023-02-03T12:38:00;9.40;99.90
4207;DHT22;2117;47.972;7.830;2023-02-03T12:40:35;9.40;99.90
4207;DHT22;2117;47.972;7.830;2023-02-03T12:43:25;9.20;99.90
4207;DHT22;2117;47.972;7.830;2023-02-03T12:45:55;9.10;99.90
4207;DHT22;2117;47.972;7.830;2023-02-03T12:48:28;9.00;99.90
4207;DHT22;2117;47.972;7.830;2023-02-03T12:51:01;8.90;99.90
4207;DHT22;2117;47.972;7.830;2023-02-03T12:53:34;8.80;99.90
4207;DHT22;2117;47.972;7.830;2023-02-03T12:56:23;8.80;99.90
4207;DHT22;2117;47.972;7.830;2023-02-03T12:58:56;8.70;99.90
4207;DHT22;2117;47.972;7.830;2023-02-03T13:01:33;8.70;99.90
4207;DHT22;2117;47.972;7.830;2023-02-03T13:12:07;8.60;99.90
4207;DHT22;2117;47.972;7.830;2023-02-03T13:14:43;8.60;99.90
4207;DHT22;2117;47.972;7.830;2023-02-03T13:17:19;8.60;99.90
4207;DHT22;2117;47.972;7.830;2023-02-03T13:19:51;8.60;99.90
4207;DHT22;2117;47.972;7.830;2023-02-03T13:22:17;8.50;99.90
4207;DHT22;2117;47.972;7.830;2023-02-03T13:24:55;8.50;99.90
4207;DHT22;2117;47.972;7.830;2023-02-03T13:38:01;8.50;99.90
4207;DHT22;2117;47.972;7.830;2023-02-03T13:43:16;8.40;99.90
4207;DHT22;2117;47.972;7.830;2023-02-03T13:45:46;8.40;99.90
4207;DHT22;2117;47.972;7.830;2023-02-03T13:48:32;8.30;99.90
4207;DHT22;2117;47.972;7.830;2023-02-03T13:51:15;8.30;99.90
4207;DHT22;2117;47.972;7.830;2023-02-03T13:53:44;8.30;99.90
4207;DHT22;2117;47.972;7.830;2023-02-03T13:56:21;8.20;99.90
4207;DHT22;2117;47.972;7.830;2023-02-03T14:01:36;8.10;99.90
4207;DHT22;2117;47.972;7.830;2023-02-03T14:04:07;8.10;99.90
4207;DHT22;2117;47.972;7.830;2023-02-03T14:09:22;8.10;99.90
4207;DHT22;2117;47.972;7.830;2023-02-03T14:11:49;8.10;99.90
4207;DHT22;2117;47.972;7.830;2023-02-03T14:16:46;8.10;99.90
4207;DHT22;2117;47.972;7.830;2023-02-03T14:22:05;8.10;99.90
4207;DHT22;2117;47.972;7.830;2023-02-03T14:24:34;8.10;99.90
4207;DHT22;2117;47.972;7.830;2023-02-03T14:27:03;8.10;99.90
4207;DHT22;2117;47.972;7.830;2023-02-03T14:29:31;8.10;99.90
4207;DHT22;2117;47.972;7.830;2023-02-03T14:32:04;8.10;99.90
4207;DHT22;2117;47.972;7.830;2023-02-03T14:34:39;8.10;99.90
4207;DHT22;2117;47.972;7.830;2023-02-03T14:56:00;8.00;99.90
4207;DHT22;2117;47.972;7.830;2023-02-03T14:58:40;8.00;99.90
4207;DHT22;2117;47.972;7.830;2023-02-03T15:01:26;8.10;99.90
4207;DHT22;2117;47.972;7.830;2023-02-03T15:06:39;8.00;99.90
4207;DHT22;2117;47.972;7.830;2023-02-03T15:09:45;8.00;99.90
4207;DHT22;2117;47.972;7.830;2023-02-03T15:12:18;8.10;99.90
4207;DHT22;2117;47.972;7.830;2023-02-03T15:14:46;8.10;99.90
4207;DHT22;2117;47.972;7.830;2023-02-03T15:17:27;8.10;99.90
4207;DHT22;2117;47.972;7.830;2023-02-03T15:19:53;8.10;99.90
4207;DHT22;2117;47.972;7.830;2023-02-03T15:22:27;8.10;99.90
4207;DHT22;2117;47.972;7.830;2023-02-03T15:24:59;8.00;99.90
4207;DHT22;2117;47.972;7.830;2023-02-03T15:27:29;8.00;99.90
4207;DHT22;2117;47.972;7.830;2023-02-03T15:29:55;8.00;99.90
4207;DHT22;2117;47.972;7.830;2023-02-03T15:32:33;8.00;99.90
4207;DHT22;2117;47.972;7.830;2023-02-03T15:35:02;8.00;99.90
4207;DHT22;2117;47.972;7.830;2023-02-03T15:37:42;8.00;99.90
4207;DHT22;2117;47.972;7.830;2023-02-03T15:40:22;8.00;99.90
4207;DHT22;2117;47.972;7.830;2023-02-03T15:42:59;8.00;99.90
4207;DHT22;2117;47.972;7.830;2023-02-03T15:45:33;8.00;99.90
4207;DHT22;2117;47.972;7.830;2023-02-03T15:48:23;7.90;99.90
4207;DHT22;2117;47.972;7.830;2023-02-03T15:50:59;8.00;99.90
4207;DHT22;2117;47.972;7.830;2023-02-03T15:53:32;7.90;99.90
4207;DHT22;2117;47.972;7.830;2023-02-03T15:56:00;7.90;99.90
4207;DHT22;2117;47.972;7.830;2023-02-03T15:58:32;7.90;99.90
4207;DHT22;2117;47.972;7.830;2023-02-03T16:01:03;7.90;99.90
4207;DHT22;2117;47.972;7.830;2023-02-03T16:03:39;7.90;99.90
4207;DHT22;2117;47.972;7.830;2023-02-03T16:06:26;7.90;99.90
4207;DHT22;2117;47.972;7.830;2023-02-03T16:08:55;7.90;99.90
4207;DHT22;2117;47.972;7.830;2023-02-03T16:11:24;7.90;99.90
4207;DHT22;2117;47.972;7.830;2023-02-03T16:13:50;7.90;99.90
4207;DHT22;2117;47.972;7.830;2023-02-03T16:16:28;7.90;99.90
4207;DHT22;2117;47.972;7.830;2023-02-03T16:18:59;7.90;99.90
4207;DHT22;2117;47.972;7.830;2023-02-03T16:21:35;7.90;99.90
4207;DHT22;2117;47.972;7.830;2023-02-03T16:24:03;7.90;99.90
4207;DHT22;2117;47.972;7.830;2023-02-03T16:26:30;7.90;99.90
4207;DHT22;2117;47.972;7.830;2023-02-03T16:29:09;7.90;99.90
4207;DHT22;2117;47.972;7.830;2023-02-03T16:31:54;7.90;99.90
4207;DHT22;2117;47.972;7.830;2023-02-03T16:34:38;7.90;99.90
4207;DHT22;2117;47.972;7.830;2023-02-03T16:37:26;7.90;99.90
4207;DHT22;2117;47.972;7.830;2023-02-03T16:40:11;7.90;99.90
4207;DHT22;2117;47.972;7.830;2023-02-03T16:42:55;7.90;99.90
4207;DHT22;2117;47.972;7.830;2023-02-03T16:45:39;7.90;99.90
4207;DHT22;2117;47.972;7.830;2023-02-03T16:48:23;7.90;99.90
4207;DHT22;2117;47.972;7.830;2023-02-03T16:51:15;7.90;99.90
4207;DHT22;2117;47.972;7.830;2023-02-03T16:53:42;7.90;99.90
4207;DHT22;2117;47.972;7.830;2023-02-03T16:56:09;7.90;99.90
4207;DHT22;2117;47.972;7.830;2023-02-03T16:58:35;7.90;99.90
4207;DHT22;2117;47.972;7.830;2023-02-03T17:01:03;7.90;99.90
4207;DHT22;2117;47.972;7.830;2023-02-03T17:03:32;7.90;99.90
4207;DHT22;2117;47.972;7.830;2023-02-03T17:06:03;7.90;99.90
4207;DHT22;2117;47.972;7.830;2023-02-03T17:08:29;7.90;99.90
4207;DHT22;2117;47.972;7.830;2023-02-03T17:11:02;7.90;99.90
4207;DHT22;2117;47.972;7.830;2023-02-03T17:13:28;7.90;99.90
4207;DHT22;2117;47.972;7.830;2023-02-03T17:15:54;7.90;99.90
4207;DHT22;2117;47.972;7.830;2023-02-03T17:18:20;7.90;99.90
4207;DHT22;2117;47.972;7.830;2023-02-03T17:20:46;7.90;99.90
4207;DHT22;2117;47.972;7.830;2023-02-03T17:23:13;7.90;99.90
4207;DHT22;2117;47.972;7.830;2023-02-03T17:25:44;7.90;99.90
4207;DHT22;2117;47.972;7.830;2023-02-03T17:28:11;7.90;99.90
4207;DHT22;2117;47.972;7.830;2023-02-03T17:30:38;7.90;99.90
4207;DHT22;2117;47.972;7.830;2023-02-03T17:33:05;7.90;99.90
4207;DHT22;2117;47.972;7.830;2023-02-03T17:35:38;7.90;99.90
4207;DHT22;2117;47.972;7.830;2023-02-03T17:38:04;8.00;99.90
4207;DHT22;2117;47.972;7.830;2023-02-03T17:40:29;8.00;99.90
4207;DHT22;2117;47.972;7.830;2023-02-03T17:42:55;7.90;99.90
4207;DHT22;2117;47.972;7.830;2023-02-03T17:45:21;7.90;99.90
4207;DHT22;2117;47.972;7.830;2023-02-03T17:47:48;7.90;99.90
4207;DHT22;2117;47.972;7.830;2023-02-03T17:50:14;7.90;99.90
4207;DHT22;2117;47.972;7.830;2023-02-03T17:52:42;7.90;99.90
4207;DHT22;2117;47.972;7.830;2023-02-03T17:55:09;7.90;99.90
4207;DHT22;2117;47.972;7.830;2023-02-03T17:57:38;7.90;99.90
4207;DHT22;2117;47.972;7.830;2023-02-03T18:00:05;7.90;99.90
4207;DHT22;2117;47.972;7.830;2023-02-03T18:02:31;7.80;99.90
4207;DHT22;2117;47.972;7.830;2023-02-03T18:04:56;7.80;99.90
4207;DHT22;2117;47.972;7.830;2023-02-03T18:07:22;7.80;99.90
4207;DHT22;2117;47.972;7.830;2023-02-03T18:09:47;7.80;99.90
4207;DHT22;2117;47.972;7.830;2023-02-03T18:12:13;7.80;99.90
4207;DHT22;2117;47.972;7.830;2023-02-03T18:14:38;7.80;99.90
4207;DHT22;2117;47.972;7.830;2023-02-03T18:17:06;7.80;99.90
4207;DHT22;2117;47.972;7.830;2023-02-03T18:19:31;7.70;99.90
4207;DHT22;2117;47.972;7.830;2023-02-03T18:21:57;7.70;99.90
4207;DHT22;2117;47.972;7.830;2023-02-03T18:24:24;7.70;99.90
4207;DHT22;2117;47.972;7.830;2023-02-03T18:26:53;7.60;99.90
4207;DHT22;2117;47.972;7.830;2023-02-03T18:29:19;7.60;99.90
4207;DHT22;2117;47.972;7.830;2023-02-03T18:31:45;7.60;99.90
4207;DHT22;2117;47.972;7.830;2023-02-03T18:34:11;7.60;99.90
4207;DHT22;2117;47.972;7.830;2023-02-03T18:36:36;7.50;99.90
4207;DHT22;2117;47.972;7.830;2023-02-03T18:39:03;7.40;99.90
4207;DHT22;2117;47.972;7.830;2023-02-03T18:41:28;7.40;99.90
4207;DHT22;2117;47.972;7.830;2023-02-03T18:43:54;7.40;99.90
4207;DHT22;2117;47.972;7.830;2023-02-03T18:46:30;7.40;99.90
4207;DHT22;2117;47.972;7.830;2023-02-03T18:48:56;7.40;99.90
4207;DHT22;2117;47.972;7.830;2023-02-03T18:51:23;7.40;99.90
4207;DHT22;2117;47.972;7.830;2023-02-03T18:53:49;7.40;99.90
4207;DHT22;2117;47.972;7.830;2023-02-03T18:56:21;7.50;99.90
4207;DHT22;2117;47.972;7.830;2023-02-03T18:58:47;7.40;99.90
4207;DHT22;2117;47.972;7.830;2023-02-03T19:01:21;7.50;99.90
4207;DHT22;2117;47.972;7.830;2023-02-03T19:03:47;7.40;99.90
4207;DHT22;2117;47.972;7.830;2023-02-03T19:06:12;7.40;99.90
4207;DHT22;2117;47.972;7.830;2023-02-03T19:08:38;7.40;99.90
4207;DHT22;2117;47.972;7.830;2023-02-03T19:11:03;7.50;99.90
4207;DHT22;2117;47.972;7.830;2023-02-03T19:13:29;7.50;99.90
4207;DHT22;2117;47.972;7.830;2023-02-03T19:15:54;7.50;99.90
4207;DHT22;2117;47.972;7.830;2023-02-03T19:18:20;7.50;99.90
4207;DHT22;2117;47.972;7.830;2023-02-03T19:20:45;7.50;99.90
4207;DHT22;2117;47.972;7.830;2023-02-03T19:23:11;7.50;99.90
4207;DHT22;2117;47.972;7.830;2023-02-03T19:25:37;7.50;99.90
4207;DHT22;2117;47.972;7.830;2023-02-03T19:28:03;7.50;99.90
4207;DHT22;2117;47.972;7.830;2023-02-03T19:30:30;7.50;99.90
4207;DHT22;2117;47.972;7.830;2023-02-03T19:32:57;7.50;99.90
4207;DHT22;2117;47.972;7.830;2023-02-03T19:35:22;7.50;99.90
4207;DHT22;2117;47.972;7.830;2023-02-03T19:37:48;7.50;99.90
4207;DHT22;2117;47.972;7.830;2023-02-03T19:40:14;7.50;99.90
4207;DHT22;2117;47.972;7.830;2023-02-03T19:42:39;7.50;99.90
4207;DHT22;2117;47.972;7.830;2023-02-03T19:45:05;7.50;99.90
4207;DHT22;2117;47.972;7.830;2023-02-03T19:47:31;7.60;99.90
4207;DHT22;2117;47.972;7.830;2023-02-03T19:49:56;7.60;99.90
4207;DHT22;2117;47.972;7.830;2023-02-03T19:52:23;7.60;99.90
4207;DHT22;2117;47.972;7.830;2023-02-03T19:54:49;7.50;99.90
4207;DHT22;2117;47.972;7.830;2023-02-03T19:57:18;7.50;99.90
4207;DHT22;2117;47.972;7.830;2023-02-03T19:59:44;7.50;99.90
4207;DHT22;2117;47.972;7.830;2023-02-03T20:02:09;7.50;99.90
4207;DHT22;2117;47.972;7.830;2023-02-03T20:04:35;7.60;99.90
4207;DHT22;2117;47.972;7.830;2023-02-03T20:07:01;7.50;99.90
4207;DHT22;2117;47.972;7.830;2023-02-03T20:09:26;7.50;99.90
4207;DHT22;2117;47.972;7.830;2023-02-03T20:11:52;7.50;99.90
4207;DHT22;2117;47.972;7.830;2023-02-03T20:14:17;7.50;99.90
4207;DHT22;2117;47.972;7.830;2023-02-03T20:16:43;7.50;99.90
4207;DHT22;2117;47.972;7.830;2023-02-03T20:19:09;7.50;99.90
4207;DHT22;2117;47.972;7.830;2023-02-03T20:21:35;7.50;99.90
4207;DHT22;2117;47.972;7.830;2023-02-03T20:24:00;7.40;99.90
4207;DHT22;2117;47.972;7.830;2023-02-03T20:26:26;7.40;99.90
4207;DHT22;2117;47.972;7.830;2023-02-03T20:28:51;7.40;99.90
4207;DHT22;2117;47.972;7.830;2023-02-03T20:31:17;7.40;99.90
4207;DHT22;2117;47.972;7.830;2023-02-03T20:33:42;7.40;99.90
4207;DHT22;2117;47.972;7.830;2023-02-03T20:36:09;7.40;99.90
4207;DHT22;2117;47.972;7.830;2023-02-03T20:38:35;7.40;99.90
4207;DHT22;2117;47.972;7.830;2023-02-03T20:41:00;7.40;99.90
4207;DHT22;2117;47.972;7.830;2023-02-03T20:43:26;7.40;99.90
4207;DHT22;2117;47.972;7.830;2023-02-03T20:45:53;7.40;99.90
4207;DHT22;2117;47.972;7.830;2023-02-03T20:48:20;7.40;99.90